sensor_id;sensor_type;location;lat;lon;timestamp;P1;durP1;ratioP1;P2;durP2;ratioP2
72358;SDS011;60317;48.880;-0.862;2023-06-10T00:02:20;4.60;;;3.10;;
72358;SDS011;60317;48.880;-0.862;2023-06-10T00:04:47;4.22;;;3.22;;
72358;SDS011;60317;48.880;-0.862;2023-06-10T00:07:14;4.80;;;3.40;;
72358;SDS011;60317;48.880;-0.862;2023-06-10T00:09:40;4.03;;;3.08;;
72358;SDS011;60317;48.880;-0.862;2023-06-10T00:12:08;4.68;;;3.75;;
72358;SDS011;60317;48.880;-0.862;2023-06-10T00:14:36;4.38;;;3.30;;
72358;SDS011;60317;48.880;-0.862;2023-06-10T00:17:04;4.50;;;3.55;;
72358;SDS011;60317;48.880;-0.862;2023-06-10T00:19:31;3.90;;;3.10;;
72358;SDS011;60317;48.880;-0.862;2023-06-10T00:21:57;4.57;;;3.38;;
72358;SDS011;60317;48.880;-0.862;2023-06-10T00:24:24;4.28;;;3.13;;
72358;SDS011;60317;48.880;-0.862;2023-06-10T00:26:50;5.00;;;3.60;;
72358;SDS011;60317;48.880;-0.862;2023-06-10T00:29:18;4.28;;;3.20;;
72358;SDS011;60317;48.880;-0.862;2023-06-10T00:31:45;4.40;;;3.58;;
72358;SDS011;60317;48.880;-0.862;2023-06-10T00:34:12;3.92;;;3.13;;
72358;SDS011;60317;48.880;-0.862;2023-06-10T00:36:39;4.75;;;3.30;;
72358;SDS011;60317;48.880;-0.862;2023-06-10T00:39:05;5.53;;;3.33;;
72358;SDS011;60317;48.880;-0.862;2023-06-10T00:41:32;4.40;;;3.00;;
72358;SDS011;60317;48.880;-0.862;2023-06-10T00:43:58;4.38;;;3.00;;
72358;SDS011;60317;48.880;-0.862;2023-06-10T00:46:26;4.53;;;3.30;;
72358;SDS011;60317;48.880;-0.862;2023-06-10T00:48:53;4.57;;;3.10;;
72358;SDS011;60317;48.880;-0.862;2023-06-10T00:51:20;4.25;;;3.28;;
72358;SDS011;60317;48.880;-0.862;2023-06-10T00:53:47;5.82;;;3.60;;
72358;SDS011;60317;48.880;-0.862;2023-06-10T00:56:14;4.95;;;3.45;;
72358;SDS011;60317;48.880;-0.862;2023-06-10T00:58:41;4.25;;;3.22;;
72358;SDS011;60317;48.880;-0.862;2023-06-10T01:01:08;3.85;;;3.25;;
72358;SDS011;60317;48.880;-0.862;2023-06-10T01:03:36;4.30;;;3.20;;
72358;SDS011;60317;48.880;-0.862;2023-06-10T01:06:08;5.25;;;3.17;;
72358;SDS011;60317;48.880;-0.862;2023-06-10T01:08:45;4.00;;;3.13;;
72358;SDS011;60317;48.880;-0.862;2023-06-10T01:11:17;5.60;;;3.35;;
72358;SDS011;60317;48.880;-0.862;2023-06-10T01:13:49;4.28;;;2.95;;
72358;SDS011;60317;48.880;-0.862;2023-06-10T01:16:17;4.70;;;3.30;;
72358;SDS011;60317;48.880;-0.862;2023-06-10T01:18:45;3.92;;;3.30;;
72358;SDS011;60317;48.880;-0.862;2023-06-10T01:21:15;5.03;;;3.45;;
72358;SDS011;60317;48.880;-0.862;2023-06-10T01:23:46;4.20;;;3.17;;
72358;SDS011;60317;48.880;-0.862;2023-06-10T01:26:12;5.00;;;3.55;;
72358;SDS011;60317;48.880;-0.862;2023-06-10T01:28:44;5.15;;;3.70;;
72358;SDS011;60317;48.880;-0.862;2023-06-10T01:31:16;4.88;;;3.33;;
72358;SDS011;60317;48.880;-0.862;2023-06-10T01:33:47;4.90;;;3.42;;
72358;SDS011;60317;48.880;-0.862;2023-06-10T01:36:17;6.60;;;3.70;;
72358;SDS011;60317;48.880;-0.862;2023-06-10T01:38:45;4.85;;;3.15;;
72358;SDS011;60317;48.880;-0.862;2023-06-10T01:41:14;4.85;;;3.38;;
72358;SDS011;60317;48.880;-0.862;2023-06-10T01:43:43;5.07;;;3.28;;
72358;SDS011;60317;48.880;-0.862;2023-06-10T01:46:11;3.78;;;3.00;;
72358;SDS011;60317;48.880;-0.862;2023-06-10T01:48:38;5.45;;;3.30;;
72358;SDS011;60317;48.880;-0.862;2023-06-10T01:51:05;4.57;;;3.30;;
72358;SDS011;60317;48.880;-0.862;2023-06-10T01:53:33;4.03;;;3.00;;
72358;SDS011;60317;48.880;-0.862;2023-06-10T01:55:59;3.75;;;3.00;;
72358;SDS011;60317;48.880;-0.862;2023-06-10T01:58:26;5.65;;;3.30;;
72358;SDS011;60317;48.880;-0.862;2023-06-10T02:00:52;4.53;;;3.50;;
72358;SDS011;60317;48.880;-0.862;2023-06-10T02:03:19;4.60;;;3.20;;
72358;SDS011;60317;48.880;-0.862;2023-06-10T02:05:46;3.97;;;3.30;;
72358;SDS011;60317;48.880;-0.862;2023-06-10T02:08:12;5.35;;;3.40;;
72358;SDS011;60317;48.880;-0.862;2023-06-10T02:10:40;4.72;;;3.58;;
72358;SDS011;60317;48.880;-0.862;2023-06-10T02:13:07;4.10;;;3.25;;
72358;SDS011;60317;48.880;-0.862;2023-06-10T02:15:33;4.25;;;3.30;;
72358;SDS011;60317;48.880;-0.862;2023-06-10T02:18:00;5.45;;;3.20;;
72358;SDS011;60317;48.880;-0.862;2023-06-10T02:20:26;3.67;;;3.10;;
72358;SDS011;60317;48.880;-0.862;2023-06-10T02:22:53;5.35;;;3.00;;
72358;SDS011;60317;48.880;-0.862;2023-06-10T02:25:19;4.63;;;3.70;;
72358;SDS011;60317;48.880;-0.862;2023-06-10T02:27:47;3.42;;;3.05;;
72358;SDS011;60317;48.880;-0.862;2023-06-10T02:30:14;3.95;;;3.10;;
72358;SDS011;60317;48.880;-0.862;2023-06-10T02:32:40;3.80;;;2.83;;
72358;SDS011;60317;48.880;-0.862;2023-06-10T02:35:07;5.72;;;3.33;;
72358;SDS011;60317;48.880;-0.862;2023-06-10T02:37:34;4.13;;;3.30;;
72358;SDS011;60317;48.880;-0.862;2023-06-10T02:40:01;5.07;;;3.28;;
72358;SDS011;60317;48.880;-0.862;2023-06-10T02:42:27;4.55;;;3.38;;
72358;SDS011;60317;48.880;-0.862;2023-06-10T02:44:55;4.18;;;3.22;;
72358;SDS011;60317;48.880;-0.862;2023-06-10T02:47:22;3.50;;;3.10;;
72358;SDS011;60317;48.880;-0.862;2023-06-10T02:49:48;4.40;;;3.30;;
72358;SDS011;60317;48.880;-0.862;2023-06-10T02:52:15;6.18;;;3.45;;
72358;SDS011;60317;48.880;-0.862;2023-06-10T02:54:41;4.40;;;3.30;;
72358;SDS011;60317;48.880;-0.862;2023-06-10T02:57:08;4.70;;;3.13;;
72358;SDS011;60317;48.880;-0.862;2023-06-10T02:59:34;4.65;;;3.45;;
72358;SDS011;60317;48.880;-0.862;2023-06-10T03:02:02;3.63;;;3.22;;
72358;SDS011;60317;48.880;-0.862;2023-06-10T03:04:29;4.72;;;3.42;;
72358;SDS011;60317;48.880;-0.862;2023-06-10T03:06:55;4.22;;;3.55;;
72358;SDS011;60317;48.880;-0.862;2023-06-10T03:09:22;4.55;;;3.88;;
72358;SDS011;60317;48.880;-0.862;2023-06-10T03:11:49;4.35;;;3.67;;
72358;SDS011;60317;48.880;-0.862;2023-06-10T03:14:15;3.95;;;3.45;;
72358;SDS011;60317;48.880;-0.862;2023-06-10T03:16:42;4.78;;;3.63;;
72358;SDS011;60317;48.880;-0.862;2023-06-10T03:19:10;4.40;;;3.47;;
72358;SDS011;60317;48.880;-0.862;2023-06-10T03:21:36;4.43;;;2.97;;
72358;SDS011;60317;48.880;-0.862;2023-06-10T03:24:03;4.10;;;3.30;;
72358;SDS011;60317;48.880;-0.862;2023-06-10T03:26:30;4.50;;;3.50;;
72358;SDS011;60317;48.880;-0.862;2023-06-10T03:28:57;4.75;;;3.13;;
72358;SDS011;60317;48.880;-0.862;2023-06-10T03:31:23;5.53;;;3.40;;
72358;SDS011;60317;48.880;-0.862;2023-06-10T03:33:50;4.22;;;3.30;;
72358;SDS011;60317;48.880;-0.862;2023-06-10T03:36:18;4.18;;;3.10;;
72358;SDS011;60317;48.880;-0.862;2023-06-10T03:38:44;3.88;;;3.40;;
72358;SDS011;60317;48.880;-0.862;2023-06-10T03:41:11;4.05;;;3.20;;
72358;SDS011;60317;48.880;-0.862;2023-06-10T03:43:37;5.03;;;3.30;;
72358;SDS011;60317;48.880;-0.862;2023-06-10T03:46:04;3.75;;;3.22;;
72358;SDS011;60317;48.880;-0.862;2023-06-10T03:48:30;4.90;;;3.50;;
72358;SDS011;60317;48.880;-0.862;2023-06-10T03:50:57;4.78;;;3.78;;
72358;SDS011;60317;48.880;-0.862;2023-06-10T03:53:25;4.82;;;3.60;;
72358;SDS011;60317;48.880;-0.862;2023-06-10T03:55:51;4.75;;;3.30;;
72358;SDS011;60317;48.880;-0.862;2023-06-10T03:58:18;4.22;;;3.38;;
72358;SDS011;60317;48.880;-0.862;2023-06-10T04:00:44;4.28;;;3.05;;
72358;SDS011;60317;48.880;-0.862;2023-06-10T04:03:11;3.67;;;3.20;;
72358;SDS011;60317;48.880;-0.862;2023-06-10T04:05:38;4.72;;;3.40;;
72358;SDS011;60317;48.880;-0.862;2023-06-10T04:08:04;4.82;;;3.70;;
72358;SDS011;60317;48.880;-0.862;2023-06-10T04:10:32;5.40;;;3.47;;
72358;SDS011;60317;48.880;-0.862;2023-06-10T04:12:59;4.63;;;3.17;;
72358;SDS011;60317;48.880;-0.862;2023-06-10T04:15:25;3.88;;;3.20;;
72358;SDS011;60317;48.880;-0.862;2023-06-10T04:17:52;3.63;;;3.10;;
72358;SDS011;60317;48.880;-0.862;2023-06-10T04:20:19;5.28;;;3.25;;
72358;SDS011;60317;48.880;-0.862;2023-06-10T04:22:45;6.45;;;3.38;;
72358;SDS011;60317;48.880;-0.862;2023-06-10T04:25:12;4.38;;;3.70;;
72358;SDS011;60317;48.880;-0.862;2023-06-10T04:27:40;4.65;;;3.22;;
72358;SDS011;60317;48.880;-0.862;2023-06-10T04:30:06;3.97;;;3.20;;
72358;SDS011;60317;48.880;-0.862;2023-06-10T04:32:33;4.07;;;3.28;;
72358;SDS011;60317;48.880;-0.862;2023-06-10T04:35:00;4.75;;;3.38;;
72358;SDS011;60317;48.880;-0.862;2023-06-10T04:37:26;4.35;;;3.30;;
72358;SDS011;60317;48.880;-0.862;2023-06-10T04:39:53;4.13;;;3.30;;
72358;SDS011;60317;48.880;-0.862;2023-06-10T04:42:19;4.32;;;3.50;;
72358;SDS011;60317;48.880;-0.862;2023-06-10T04:44:47;4.38;;;3.33;;
72358;SDS011;60317;48.880;-0.862;2023-06-10T04:47:14;4.75;;;3.55;;
72358;SDS011;60317;48.880;-0.862;2023-06-10T04:49:40;4.97;;;3.47;;
72358;SDS011;60317;48.880;-0.862;2023-06-10T04:52:07;3.75;;;3.35;;
72358;SDS011;60317;48.880;-0.862;2023-06-10T04:54:33;3.97;;;3.15;;
72358;SDS011;60317;48.880;-0.862;2023-06-10T04:57:00;4.30;;;3.08;;
72358;SDS011;60317;48.880;-0.862;2023-06-10T04:59:26;4.30;;;3.50;;
72358;SDS011;60317;48.880;-0.862;2023-06-10T05:01:55;4.70;;;3.35;;
72358;SDS011;60317;48.880;-0.862;2023-06-10T05:04:22;3.83;;;3.08;;
72358;SDS011;60317;48.880;-0.862;2023-06-10T05:06:48;4.78;;;3.25;;
72358;SDS011;60317;48.880;-0.862;2023-06-10T05:09:15;4.47;;;3.40;;
72358;SDS011;60317;48.880;-0.862;2023-06-10T05:11:41;3.83;;;3.10;;
72358;SDS011;60317;48.880;-0.862;2023-06-10T05:14:08;4.70;;;3.40;;
72358;SDS011;60317;48.880;-0.862;2023-06-10T05:16:34;5.43;;;3.15;;
72358;SDS011;60317;48.880;-0.862;2023-06-10T05:19:02;4.30;;;3.38;;
72358;SDS011;60317;48.880;-0.862;2023-06-10T05:21:33;4.35;;;3.40;;
72358;SDS011;60317;48.880;-0.862;2023-06-10T05:24:00;5.20;;;3.33;;
72358;SDS011;60317;48.880;-0.862;2023-06-10T05:26:26;5.00;;;3.50;;
72358;SDS011;60317;48.880;-0.862;2023-06-10T05:28:53;4.75;;;3.30;;
72358;SDS011;60317;48.880;-0.862;2023-06-10T05:31:19;4.82;;;3.60;;
72358;SDS011;60317;48.880;-0.862;2023-06-10T05:33:46;4.57;;;3.42;;
72358;SDS011;60317;48.880;-0.862;2023-06-10T05:36:14;3.67;;;3.28;;
72358;SDS011;60317;48.880;-0.862;2023-06-10T05:38:40;4.43;;;3.33;;
72358;SDS011;60317;48.880;-0.862;2023-06-10T05:41:07;5.70;;;3.55;;
72358;SDS011;60317;48.880;-0.862;2023-06-10T05:43:33;5.57;;;3.35;;
72358;SDS011;60317;48.880;-0.862;2023-06-10T05:46:00;4.38;;;3.30;;
72358;SDS011;60317;48.880;-0.862;2023-06-10T05:48:27;4.20;;;3.20;;
72358;SDS011;60317;48.880;-0.862;2023-06-10T05:50:53;4.20;;;3.35;;
72358;SDS011;60317;48.880;-0.862;2023-06-10T05:53:21;5.07;;;3.35;;
72358;SDS011;60317;48.880;-0.862;2023-06-10T05:55:47;5.45;;;3.70;;
72358;SDS011;60317;48.880;-0.862;2023-06-10T05:58:14;6.82;;;3.63;;
72358;SDS011;60317;48.880;-0.862;2023-06-10T06:00:41;4.63;;;3.33;;
72358;SDS011;60317;48.880;-0.862;2023-06-10T06:03:07;4.82;;;3.30;;
72358;SDS011;60317;48.880;-0.862;2023-06-10T06:05:36;4.43;;;3.45;;
72358;SDS011;60317;48.880;-0.862;2023-06-10T06:08:03;5.05;;;3.75;;
72358;SDS011;60317;48.880;-0.862;2023-06-10T06:10:31;4.43;;;3.50;;
72358;SDS011;60317;48.880;-0.862;2023-06-10T06:12:58;5.38;;;3.35;;
72358;SDS011;60317;48.880;-0.862;2023-06-10T06:15:24;4.65;;;3.80;;
72358;SDS011;60317;48.880;-0.862;2023-06-10T06:17:51;3.92;;;3.40;;
72358;SDS011;60317;48.880;-0.862;2023-06-10T06:20:17;4.28;;;3.40;;
72358;SDS011;60317;48.880;-0.862;2023-06-10T06:22:45;4.60;;;3.30;;
72358;SDS011;60317;48.880;-0.862;2023-06-10T06:25:12;4.55;;;3.20;;
72358;SDS011;60317;48.880;-0.862;2023-06-10T06:27:41;4.38;;;3.30;;
72358;SDS011;60317;48.880;-0.862;2023-06-10T06:30:07;4.80;;;3.60;;
72358;SDS011;60317;48.880;-0.862;2023-06-10T06:32:34;3.92;;;3.42;;
72358;SDS011;60317;48.880;-0.862;2023-06-10T06:35:01;4.40;;;3.20;;
72358;SDS011;60317;48.880;-0.862;2023-06-10T06:37:28;4.25;;;3.33;;
72358;SDS011;60317;48.880;-0.862;2023-06-10T06:39:54;4.32;;;3.22;;
72358;SDS011;60317;48.880;-0.862;2023-06-10T06:42:21;4.82;;;3.88;;
72358;SDS011;60317;48.880;-0.862;2023-06-10T06:44:49;4.63;;;3.50;;
72358;SDS011;60317;48.880;-0.862;2023-06-10T06:47:15;4.20;;;3.20;;
72358;SDS011;60317;48.880;-0.862;2023-06-10T06:49:42;3.85;;;3.10;;
72358;SDS011;60317;48.880;-0.862;2023-06-10T06:52:08;4.63;;;3.40;;
72358;SDS011;60317;48.880;-0.862;2023-06-10T06:54:35;4.38;;;3.70;;
72358;SDS011;60317;48.880;-0.862;2023-06-10T06:57:01;3.83;;;2.92;;
72358;SDS011;60317;48.880;-0.862;2023-06-10T06:59:28;4.00;;;3.45;;
72358;SDS011;60317;48.880;-0.862;2023-06-10T07:01:56;4.22;;;3.58;;
72358;SDS011;60317;48.880;-0.862;2023-06-10T07:04:22;6.40;;;3.30;;
72358;SDS011;60317;48.880;-0.862;2023-06-10T07:06:49;4.22;;;3.65;;
72358;SDS011;60317;48.880;-0.862;2023-06-10T07:09:15;3.78;;;3.05;;
72358;SDS011;60317;48.880;-0.862;2023-06-10T07:11:42;4.57;;;3.53;;
72358;SDS011;60317;48.880;-0.862;2023-06-10T07:14:08;3.85;;;3.45;;
72358;SDS011;60317;48.880;-0.862;2023-06-10T07:16:35;6.97;;;3.42;;
72358;SDS011;60317;48.880;-0.862;2023-06-10T07:19:03;5.50;;;3.38;;
72358;SDS011;60317;48.880;-0.862;2023-06-10T07:21:31;4.43;;;3.65;;
72358;SDS011;60317;48.880;-0.862;2023-06-10T07:23:58;4.10;;;3.65;;
72358;SDS011;60317;48.880;-0.862;2023-06-10T07:26:24;3.83;;;3.15;;
72358;SDS011;60317;48.880;-0.862;2023-06-10T07:28:51;6.40;;;3.70;;
72358;SDS011;60317;48.880;-0.862;2023-06-10T07:31:18;4.45;;;3.60;;
72358;SDS011;60317;48.880;-0.862;2023-06-10T07:33:44;3.60;;;3.25;;
72358;SDS011;60317;48.880;-0.862;2023-06-10T07:36:13;4.38;;;3.50;;
72358;SDS011;60317;48.880;-0.862;2023-06-10T07:38:40;5.25;;;3.25;;
72358;SDS011;60317;48.880;-0.862;2023-06-10T07:41:06;4.50;;;2.85;;
72358;SDS011;60317;48.880;-0.862;2023-06-10T07:43:33;4.78;;;3.88;;
72358;SDS011;60317;48.880;-0.862;2023-06-10T07:45:59;4.32;;;3.20;;
72358;SDS011;60317;48.880;-0.862;2023-06-10T07:48:26;5.35;;;3.65;;
72358;SDS011;60317;48.880;-0.862;2023-06-10T07:50:52;4.38;;;3.38;;
72358;SDS011;60317;48.880;-0.862;2023-06-10T07:53:20;6.30;;;3.83;;
72358;SDS011;60317;48.880;-0.862;2023-06-10T07:55:47;5.07;;;3.30;;
72358;SDS011;60317;48.880;-0.862;2023-06-10T07:58:14;3.80;;;3.40;;
72358;SDS011;60317;48.880;-0.862;2023-06-10T08:00:40;4.60;;;3.47;;
72358;SDS011;60317;48.880;-0.862;2023-06-10T08:03:07;3.70;;;3.17;;
72358;SDS011;60317;48.880;-0.862;2023-06-10T08:05:33;4.28;;;3.45;;
72358;SDS011;60317;48.880;-0.862;2023-06-10T08:08:00;3.72;;;3.30;;
72358;SDS011;60317;48.880;-0.862;2023-06-10T08:10:30;5.00;;;3.20;;
72358;SDS011;60317;48.880;-0.862;2023-06-10T08:12:57;4.05;;;3.50;;
72358;SDS011;60317;48.880;-0.862;2023-06-10T08:15:23;6.38;;;3.50;;
72358;SDS011;60317;48.880;-0.862;2023-06-10T08:17:50;4.65;;;3.50;;
72358;SDS011;60317;48.880;-0.862;2023-06-10T08:20:17;4.10;;;3.63;;
72358;SDS011;60317;48.880;-0.862;2023-06-10T08:22:43;5.28;;;3.72;;
72358;SDS011;60317;48.880;-0.862;2023-06-10T08:25:10;4.80;;;3.20;;
72358;SDS011;60317;48.880;-0.862;2023-06-10T08:27:38;5.13;;;3.38;;
72358;SDS011;60317;48.880;-0.862;2023-06-10T08:30:05;4.55;;;3.50;;
72358;SDS011;60317;48.880;-0.862;2023-06-10T08:32:32;4.40;;;3.35;;
72358;SDS011;60317;48.880;-0.862;2023-06-10T08:34:59;3.90;;;3.20;;
72358;SDS011;60317;48.880;-0.862;2023-06-10T08:37:25;4.20;;;3.42;;
72358;SDS011;60317;48.880;-0.862;2023-06-10T08:39:52;6.00;;;3.60;;
72358;SDS011;60317;48.880;-0.862;2023-06-10T08:42:21;4.40;;;3.42;;
72358;SDS011;60317;48.880;-0.862;2023-06-10T08:44:50;5.63;;;3.40;;
72358;SDS011;60317;48.880;-0.862;2023-06-10T08:47:20;4.35;;;3.42;;
72358;SDS011;60317;48.880;-0.862;2023-06-10T08:49:49;6.45;;;3.40;;
72358;SDS011;60317;48.880;-0.862;2023-06-10T08:52:17;6.28;;;3.50;;
72358;SDS011;60317;48.880;-0.862;2023-06-10T08:54:46;5.75;;;3.55;;
72358;SDS011;60317;48.880;-0.862;2023-06-10T08:59:44;3.75;;;3.17;;
72358;SDS011;60317;48.880;-0.862;2023-06-10T09:02:12;4.68;;;3.50;;
72358;SDS011;60317;48.880;-0.862;2023-06-10T09:04:40;4.80;;;3.20;;
72358;SDS011;60317;48.880;-0.862;2023-06-10T09:07:08;4.68;;;3.17;;
72358;SDS011;60317;48.880;-0.862;2023-06-10T09:09:35;4.20;;;3.47;;
72358;SDS011;60317;48.880;-0.862;2023-06-10T09:12:02;6.40;;;3.40;;
72358;SDS011;60317;48.880;-0.862;2023-06-10T09:14:29;4.53;;;3.30;;
72358;SDS011;60317;48.880;-0.862;2023-06-10T09:16:56;4.28;;;3.40;;
72358;SDS011;60317;48.880;-0.862;2023-06-10T09:19:24;4.03;;;3.15;;
72358;SDS011;60317;48.880;-0.862;2023-06-10T09:21:53;4.10;;;3.10;;
72358;SDS011;60317;48.880;-0.862;2023-06-10T09:24:20;3.88;;;3.28;;
72358;SDS011;60317;48.880;-0.862;2023-06-10T09:26:48;4.22;;;3.33;;
72358;SDS011;60317;48.880;-0.862;2023-06-10T09:29:15;5.18;;;3.40;;
72358;SDS011;60317;48.880;-0.862;2023-06-10T09:31:41;4.78;;;3.42;;
72358;SDS011;60317;48.880;-0.862;2023-06-10T09:34:11;4.10;;;3.03;;
72358;SDS011;60317;48.880;-0.862;2023-06-10T09:36:40;4.38;;;3.42;;
72358;SDS011;60317;48.880;-0.862;2023-06-10T09:39:13;4.18;;;3.35;;
72358;SDS011;60317;48.880;-0.862;2023-06-10T09:41:40;6.57;;;3.20;;
72358;SDS011;60317;48.880;-0.862;2023-06-10T09:44:10;3.67;;;3.10;;
72358;SDS011;60317;48.880;-0.862;2023-06-10T09:46:38;4.65;;;3.35;;
72358;SDS011;60317;48.880;-0.862;2023-06-10T09:49:05;5.32;;;3.15;;
72358;SDS011;60317;48.880;-0.862;2023-06-10T09:51:31;5.65;;;3.50;;
72358;SDS011;60317;48.880;-0.862;2023-06-10T09:53:59;4.47;;;3.35;;
72358;SDS011;60317;48.880;-0.862;2023-06-10T09:56:36;4.50;;;3.28;;
72358;SDS011;60317;48.880;-0.862;2023-06-10T09:59:03;5.20;;;3.42;;
72358;SDS011;60317;48.880;-0.862;2023-06-10T10:01:30;3.80;;;3.10;;
72358;SDS011;60317;48.880;-0.862;2023-06-10T10:03:57;4.55;;;3.20;;
72358;SDS011;60317;48.880;-0.862;2023-06-10T10:06:24;5.13;;;3.20;;
72358;SDS011;60317;48.880;-0.862;2023-06-10T10:08:51;4.88;;;3.40;;
72358;SDS011;60317;48.880;-0.862;2023-06-10T10:11:20;5.10;;;3.10;;
72358;SDS011;60317;48.880;-0.862;2023-06-10T10:13:48;4.13;;;3.15;;
72358;SDS011;60317;48.880;-0.862;2023-06-10T10:16:16;4.30;;;3.45;;
72358;SDS011;60317;48.880;-0.862;2023-06-10T10:18:47;3.80;;;3.20;;
72358;SDS011;60317;48.880;-0.862;2023-06-10T10:21:21;4.43;;;3.30;;
72358;SDS011;60317;48.880;-0.862;2023-06-10T10:23:52;3.90;;;3.25;;
72358;SDS011;60317;48.880;-0.862;2023-06-10T10:26:23;4.15;;;3.30;;
72358;SDS011;60317;48.880;-0.862;2023-06-10T10:28:54;4.50;;;3.58;;
72358;SDS011;60317;48.880;-0.862;2023-06-10T10:31:30;4.10;;;3.15;;
72358;SDS011;60317;48.880;-0.862;2023-06-10T10:34:02;4.03;;;3.35;;
72358;SDS011;60317;48.880;-0.862;2023-06-10T10:36:32;4.30;;;3.30;;
72358;SDS011;60317;48.880;-0.862;2023-06-10T10:39:00;4.43;;;3.38;;
72358;SDS011;60317;48.880;-0.862;2023-06-10T10:41:28;4.72;;;3.42;;
72358;SDS011;60317;48.880;-0.862;2023-06-10T10:43:57;4.05;;;3.40;;
72358;SDS011;60317;48.880;-0.862;2023-06-10T10:46:25;3.60;;;3.15;;
72358;SDS011;60317;48.880;-0.862;2023-06-10T10:48:52;3.88;;;3.08;;
72358;SDS011;60317;48.880;-0.862;2023-06-10T10:51:19;4.30;;;3.22;;
72358;SDS011;60317;48.880;-0.862;2023-06-10T10:56:38;4.20;;;3.50;;
72358;SDS011;60317;48.880;-0.862;2023-06-10T10:59:05;4.00;;;3.20;;
72358;SDS011;60317;48.880;-0.862;2023-06-10T11:01:40;4.47;;;3.10;;
72358;SDS011;60317;48.880;-0.862;2023-06-10T11:04:07;3.55;;;3.22;;
72358;SDS011;60317;48.880;-0.862;2023-06-10T11:06:34;4.93;;;3.90;;
72358;SDS011;60317;48.880;-0.862;2023-06-10T11:09:01;4.38;;;3.75;;
72358;SDS011;60317;48.880;-0.862;2023-06-10T11:11:53;4.00;;;3.47;;
72358;SDS011;60317;48.880;-0.862;2023-06-10T11:14:26;4.53;;;3.33;;
72358;SDS011;60317;48.880;-0.862;2023-06-10T11:16:53;4.20;;;3.10;;
72358;SDS011;60317;48.880;-0.862;2023-06-10T11:22:00;5.95;;;2.97;;
72358;SDS011;60317;48.880;-0.862;2023-06-10T11:24:28;4.32;;;3.40;;
72358;SDS011;60317;48.880;-0.862;2023-06-10T11:29:54;5.03;;;3.53;;
72358;SDS011;60317;48.880;-0.862;2023-06-10T11:32:22;3.90;;;3.20;;
72358;SDS011;60317;48.880;-0.862;2023-06-10T11:34:51;4.15;;;3.38;;
72358;SDS011;60317;48.880;-0.862;2023-06-10T11:37:18;5.75;;;3.55;;
72358;SDS011;60317;48.880;-0.862;2023-06-10T11:39:46;3.88;;;3.20;;
72358;SDS011;60317;48.880;-0.862;2023-06-10T11:42:12;4.72;;;3.65;;
72358;SDS011;60317;48.880;-0.862;2023-06-10T11:44:43;5.50;;;3.60;;
72358;SDS011;60317;48.880;-0.862;2023-06-10T11:47:14;4.68;;;3.42;;
72358;SDS011;60317;48.880;-0.862;2023-06-10T11:49:40;5.00;;;3.50;;
72358;SDS011;60317;48.880;-0.862;2023-06-10T11:52:11;4.78;;;3.45;;
72358;SDS011;60317;48.880;-0.862;2023-06-10T11:54:37;3.72;;;3.38;;
72358;SDS011;60317;48.880;-0.862;2023-06-10T11:57:04;3.92;;;3.15;;
72358;SDS011;60317;48.880;-0.862;2023-06-10T11:59:31;4.90;;;3.88;;
72358;SDS011;60317;48.880;-0.862;2023-06-10T12:01:59;6.25;;;3.65;;
72358;SDS011;60317;48.880;-0.862;2023-06-10T12:04:25;5.55;;;3.72;;
72358;SDS011;60317;48.880;-0.862;2023-06-10T12:06:53;5.00;;;3.65;;
72358;SDS011;60317;48.880;-0.862;2023-06-10T12:09:21;5.85;;;4.18;;
72358;SDS011;60317;48.880;-0.862;2023-06-10T12:11:53;5.35;;;3.30;;
72358;SDS011;60317;48.880;-0.862;2023-06-10T12:17:10;4.30;;;3.75;;
72358;SDS011;60317;48.880;-0.862;2023-06-10T12:19:38;4.43;;;3.38;;
72358;SDS011;60317;48.880;-0.862;2023-06-10T12:22:06;4.05;;;3.58;;
72358;SDS011;60317;48.880;-0.862;2023-06-10T12:24:33;4.60;;;3.70;;
72358;SDS011;60317;48.880;-0.862;2023-06-10T12:26:59;4.72;;;3.47;;
72358;SDS011;60317;48.880;-0.862;2023-06-10T12:29:26;6.00;;;3.88;;
72358;SDS011;60317;48.880;-0.862;2023-06-10T12:31:54;5.22;;;4.07;;
72358;SDS011;60317;48.880;-0.862;2023-06-10T12:34:28;5.50;;;3.97;;
72358;SDS011;60317;48.880;-0.862;2023-06-10T12:36:57;4.97;;;3.97;;
72358;SDS011;60317;48.880;-0.862;2023-06-10T12:39:23;4.90;;;3.65;;
72358;SDS011;60317;48.880;-0.862;2023-06-10T12:41:50;5.50;;;4.05;;
72358;SDS011;60317;48.880;-0.862;2023-06-10T12:44:17;5.53;;;4.05;;
72358;SDS011;60317;48.880;-0.862;2023-06-10T12:46:44;5.72;;;3.92;;
72358;SDS011;60317;48.880;-0.862;2023-06-10T12:49:18;6.28;;;3.80;;
72358;SDS011;60317;48.880;-0.862;2023-06-10T12:51:46;5.40;;;3.60;;
72358;SDS011;60317;48.880;-0.862;2023-06-10T12:54:13;5.32;;;3.78;;
72358;SDS011;60317;48.880;-0.862;2023-06-10T12:56:39;4.68;;;3.72;;
72358;SDS011;60317;48.880;-0.862;2023-06-10T12:59:06;5.30;;;3.90;;
72358;SDS011;60317;48.880;-0.862;2023-06-10T13:01:32;5.53;;;3.80;;
72358;SDS011;60317;48.880;-0.862;2023-06-10T13:03:59;4.88;;;3.92;;
72358;SDS011;60317;48.880;-0.862;2023-06-10T13:06:26;5.22;;;3.70;;
72358;SDS011;60317;48.880;-0.862;2023-06-10T13:08:53;5.40;;;3.90;;
72358;SDS011;60317;48.880;-0.862;2023-06-10T13:11:20;5.43;;;4.07;;
72358;SDS011;60317;48.880;-0.862;2023-06-10T13:13:46;5.72;;;4.00;;
72358;SDS011;60317;48.880;-0.862;2023-06-10T13:16:13;5.05;;;3.85;;
72358;SDS011;60317;48.880;-0.862;2023-06-10T13:18:39;7.03;;;3.75;;
72358;SDS011;60317;48.880;-0.862;2023-06-10T13:21:06;6.03;;;3.90;;
72358;SDS011;60317;48.880;-0.862;2023-06-10T13:23:32;5.65;;;4.22;;
72358;SDS011;60317;48.880;-0.862;2023-06-10T13:26:00;4.80;;;4.20;;
72358;SDS011;60317;48.880;-0.862;2023-06-10T13:28:27;6.15;;;4.28;;
72358;SDS011;60317;48.880;-0.862;2023-06-10T13:30:53;5.25;;;3.80;;
72358;SDS011;60317;48.880;-0.862;2023-06-10T13:33:20;5.45;;;4.20;;
72358;SDS011;60317;48.880;-0.862;2023-06-10T13:35:46;5.90;;;4.50;;
72358;SDS011;60317;48.880;-0.862;2023-06-10T13:38:13;4.70;;;3.88;;
72358;SDS011;60317;48.880;-0.862;2023-06-10T13:40:39;5.57;;;4.38;;
72358;SDS011;60317;48.880;-0.862;2023-06-10T13:43:07;5.20;;;4.15;;
72358;SDS011;60317;48.880;-0.862;2023-06-10T13:45:34;5.82;;;4.32;;
72358;SDS011;60317;48.880;-0.862;2023-06-10T13:48:00;6.20;;;3.78;;
72358;SDS011;60317;48.880;-0.862;2023-06-10T13:50:27;7.35;;;4.30;;
72358;SDS011;60317;48.880;-0.862;2023-06-10T13:52:53;6.35;;;4.30;;
72358;SDS011;60317;48.880;-0.862;2023-06-10T13:55:20;5.13;;;4.10;;
72358;SDS011;60317;48.880;-0.862;2023-06-10T13:57:46;4.50;;;3.92;;
72358;SDS011;60317;48.880;-0.862;2023-06-10T14:00:14;4.68;;;3.90;;
72358;SDS011;60317;48.880;-0.862;2023-06-10T14:02:41;6.55;;;4.40;;
72358;SDS011;60317;48.880;-0.862;2023-06-10T14:05:08;4.28;;;3.72;;
72358;SDS011;60317;48.880;-0.862;2023-06-10T14:07:35;5.70;;;3.95;;
72358;SDS011;60317;48.880;-0.862;2023-06-10T14:10:02;4.30;;;3.63;;
72358;SDS011;60317;48.880;-0.862;2023-06-10T14:12:30;6.45;;;4.00;;
72358;SDS011;60317;48.880;-0.862;2023-06-10T14:14:56;5.13;;;3.97;;
72358;SDS011;60317;48.880;-0.862;2023-06-10T14:17:24;5.60;;;4.05;;
72358;SDS011;60317;48.880;-0.862;2023-06-10T14:19:50;4.80;;;3.85;;
72358;SDS011;60317;48.880;-0.862;2023-06-10T14:22:17;5.10;;;4.22;;
72358;SDS011;60317;48.880;-0.862;2023-06-10T14:24:43;5.47;;;4.30;;
72358;SDS011;60317;48.880;-0.862;2023-06-10T14:27:10;4.32;;;3.75;;
72358;SDS011;60317;48.880;-0.862;2023-06-10T14:29:37;5.30;;;3.92;;
72358;SDS011;60317;48.880;-0.862;2023-06-10T14:32:03;6.35;;;4.40;;
72358;SDS011;60317;48.880;-0.862;2023-06-10T14:34:36;4.65;;;4.15;;
72358;SDS011;60317;48.880;-0.862;2023-06-10T14:37:02;8.40;;;4.43;;
72358;SDS011;60317;48.880;-0.862;2023-06-10T14:39:29;6.32;;;4.30;;
72358;SDS011;60317;48.880;-0.862;2023-06-10T14:41:56;6.05;;;3.88;;
72358;SDS011;60317;48.880;-0.862;2023-06-10T14:44:22;5.47;;;4.00;;
72358;SDS011;60317;48.880;-0.862;2023-06-10T14:46:49;5.10;;;4.07;;
72358;SDS011;60317;48.880;-0.862;2023-06-10T14:49:15;5.03;;;3.90;;